sensor_id;sensor_type;location;lat;lon;timestamp;temperature;humidity
50758;DHT22;36732;47.980;11.652;2022-10-12T00:01:21;16.60;71.00
50758;DHT22;36732;47.980;11.652;2022-10-12T00:03:47;16.50;71.00
50758;DHT22;36732;47.980;11.652;2022-10-12T00:06:16;16.60;71.10
50758;DHT22;36732;47.980;11.652;2022-10-12T00:08:44;16.60;71.50
50758;DHT22;36732;47.980;11.652;2022-10-12T00:11:14;16.60;71.10
50758;DHT22;36732;47.980;11.652;2022-10-12T00:13:42;16.60;71.10
50758;DHT22;36732;47.980;11.652;2022-10-12T00:16:10;16.50;71.10
50758;DHT22;36732;47.980;11.652;2022-10-12T00:18:37;16.60;71.20
50758;DHT22;36732;47.980;11.652;2022-10-12T00:21:07;16.50;71.10
50758;DHT22;36732;47.980;11.652;2022-10-12T00:23:37;16.60;71.20
50758;DHT22;36732;47.980;11.652;2022-10-12T00:26:16;16.60;71.20
50758;DHT22;36732;47.980;11.652;2022-10-12T00:28:43;16.60;71.20
50758;DHT22;36732;47.980;11.652;2022-10-12T00:31:11;16.60;71.10
50758;DHT22;36732;47.980;11.652;2022-10-12T00:33:39;16.60;71.50
50758;DHT22;36732;47.980;11.652;2022-10-12T00:36:15;16.60;71.20
50758;DHT22;36732;47.980;11.652;2022-10-12T00:38:47;16.60;71.30
50758;DHT22;36732;47.980;11.652;2022-10-12T00:41:15;16.60;71.20
50758;DHT22;36732;47.980;11.652;2022-10-12T00:43:42;16.60;71.20
50758;DHT22;36732;47.980;11.652;2022-10-12T00:49:03;16.60;71.40
50758;DHT22;36732;47.980;11.652;2022-10-12T00:51:36;16.60;71.30
50758;DHT22;36732;47.980;11.652;2022-10-12T00:54:07;16.60;71.20
50758;DHT22;36732;47.980;11.652;2022-10-12T00:56:37;16.60;71.20
50758;DHT22;36732;47.980;11.652;2022-10-12T00:59:09;16.60;71.30
50758;DHT22;36732;47.980;11.652;2022-10-12T01:01:37;16.60;71.20
50758;DHT22;36732;47.980;11.652;2022-10-12T01:04:04;16.60;71.20
50758;DHT22;36732;47.980;11.652;2022-10-12T01:06:31;16.60;71.20
50758;DHT22;36732;47.980;11.652;2022-10-12T01:08:57;16.60;71.20
50758;DHT22;36732;47.980;11.652;2022-10-12T01:11:23;16.60;71.20
50758;DHT22;36732;47.980;11.652;2022-10-12T01:13:50;16.60;71.20
50758;DHT22;36732;47.980;11.652;2022-10-12T01:16:31;16.60;71.30
50758;DHT22;36732;47.980;11.652;2022-10-12T01:19:23;16.60;71.50
50758;DHT22;36732;47.980;11.652;2022-10-12T01:22:06;16.60;72.20
50758;DHT22;36732;47.980;11.652;2022-10-12T01:24:55;16.60;72.10
50758;DHT22;36732;47.980;11.652;2022-10-12T01:27:55;16.50;71.70
50758;DHT22;36732;47.980;11.652;2022-10-12T01:30:42;16.50;71.70
50758;DHT22;36732;47.980;11.652;2022-10-12T01:33:38;16.50;71.50
50758;DHT22;36732;47.980;11.652;2022-10-12T01:36:18;16.60;71.70
50758;DHT22;36732;47.980;11.652;2022-10-12T01:39:20;16.60;71.70
50758;DHT22;36732;47.980;11.652;2022-10-12T01:41:54;16.60;71.80
50758;DHT22;36732;47.980;11.652;2022-10-12T01:44:23;16.60;71.60
50758;DHT22;36732;47.980;11.652;2022-10-12T01:46:52;16.60;71.60
50758;DHT22;36732;47.980;11.652;2022-10-12T01:49:25;16.60;71.60
50758;DHT22;36732;47.980;11.652;2022-10-12T01:54:52;16.50;71.90
50758;DHT22;36732;47.980;11.652;2022-10-12T02:00:14;16.60;72.00
50758;DHT22;36732;47.980;11.652;2022-10-12T02:05:49;16.60;72.10
50758;DHT22;36732;47.980;11.652;2022-10-12T02:08:22;16.60;71.90
50758;DHT22;36732;47.980;11.652;2022-10-12T02:11:09;16.60;72.00
50758;DHT22;36732;47.980;11.652;2022-10-12T02:13:40;16.60;71.80
50758;DHT22;36732;47.980;11.652;2022-10-12T02:16:11;16.60;71.70
50758;DHT22;36732;47.980;11.652;2022-10-12T02:18:44;16.60;71.80
50758;DHT22;36732;47.980;11.652;2022-10-12T02:21:15;16.60;71.80
50758;DHT22;36732;47.980;11.652;2022-10-12T02:23:44;16.60;71.80
50758;DHT22;36732;47.980;11.652;2022-10-12T02:26:13;16.60;71.80
50758;DHT22;36732;47.980;11.652;2022-10-12T02:28:42;16.60;71.80
50758;DHT22;36732;47.980;11.652;2022-10-12T02:34:24;16.60;71.90
50758;DHT22;36732;47.980;11.652;2022-10-12T02:42:18;16.60;71.80
50758;DHT22;36732;47.980;11.652;2022-10-12T02:44:46;16.60;71.80
50758;DHT22;36732;47.980;11.652;2022-10-12T02:47:14;16.60;71.80
50758;DHT22;36732;47.980;11.652;2022-10-12T02:49:42;16.60;71.80
50758;DHT22;36732;47.980;11.652;2022-10-12T02:52:08;16.60;71.80
50758;DHT22;36732;47.980;11.652;2022-10-12T02:54:35;16.60;71.80
50758;DHT22;36732;47.980;11.652;2022-10-12T02:57:00;16.60;71.80
50758;DHT22;36732;47.980;11.652;2022-10-12T02:59:26;16.60;71.80
50758;DHT22;36732;47.980;11.652;2022-10-12T03:01:53;16.60;71.80
50758;DHT22;36732;47.980;11.652;2022-10-12T03:04:18;16.60;71.80
50758;DHT22;36732;47.980;11.652;2022-10-12T03:06:44;16.60;71.80
50758;DHT22;36732;47.980;11.652;2022-10-12T03:09:10;16.60;71.80
50758;DHT22;36732;47.980;11.652;2022-10-12T03:11:36;16.60;71.80
50758;DHT22;36732;47.980;11.652;2022-10-12T03:14:10;16.60;71.80
50758;DHT22;36732;47.980;11.652;2022-10-12T03:16:36;16.60;71.80
50758;DHT22;36732;47.980;11.652;2022-10-12T03:19:02;16.70;71.80
50758;DHT22;36732;47.980;11.652;2022-10-12T03:21:28;16.60;71.70
50758;DHT22;36732;47.980;11.652;2022-10-12T03:23:54;16.60;71.70
50758;DHT22;36732;47.980;11.652;2022-10-12T03:26:19;16.60;71.70
50758;DHT22;36732;47.980;11.652;2022-10-12T03:28:45;16.60;71.70
50758;DHT22;36732;47.980;11.652;2022-10-12T03:31:12;16.60;71.70
50758;DHT22;36732;47.980;11.652;2022-10-12T03:33:37;16.60;71.70
50758;DHT22;36732;47.980;11.652;2022-10-12T03:36:04;16.60;71.60
50758;DHT22;36732;47.980;11.652;2022-10-12T03:38:30;16.60;71.60
50758;DHT22;36732;47.980;11.652;2022-10-12T03:40:56;16.60;71.60
50758;DHT22;36732;47.980;11.652;2022-10-12T03:43:22;16.60;71.60
50758;DHT22;36732;47.980;11.652;2022-10-12T03:45:47;16.60;71.60
50758;DHT22;36732;47.980;11.652;2022-10-12T03:48:14;16.60;71.60
50758;DHT22;36732;47.980;11.652;2022-10-12T03:50:39;16.60;71.60
50758;DHT22;36732;47.980;11.652;2022-10-12T03:53:06;16.60;71.60
50758;DHT22;36732;47.980;11.652;2022-10-12T03:55:32;16.60;71.50
50758;DHT22;36732;47.980;11.652;2022-10-12T03:57:58;16.60;71.50
50758;DHT22;36732;47.980;11.652;2022-10-12T04:00:24;16.60;71.60
50758;DHT22;36732;47.980;11.652;2022-10-12T04:02:50;16.60;71.60
50758;DHT22;36732;47.980;11.652;2022-10-12T04:05:16;16.60;71.60
50758;DHT22;36732;47.980;11.652;2022-10-12T04:07:42;16.60;71.60
50758;DHT22;36732;47.980;11.652;2022-10-12T04:10:08;16.60;71.60
50758;DHT22;36732;47.980;11.652;2022-10-12T04:12:33;16.60;71.50
50758;DHT22;36732;47.980;11.652;2022-10-12T04:14:59;16.60;71.60
50758;DHT22;36732;47.980;11.652;2022-10-12T04:17:25;16.60;71.60
50758;DHT22;36732;47.980;11.652;2022-10-12T04:19:51;16.50;71.50
50758;DHT22;36732;47.980;11.652;2022-10-12T04:22:16;16.60;71.70
50758;DHT22;36732;47.980;11.652;2022-10-12T04:24:42;16.60;71.70
50758;DHT22;36732;47.980;11.652;2022-10-12T04:27:08;16.60;71.70
50758;DHT22;36732;47.980;11.652;2022-10-12T04:29:33;16.60;71.70
50758;DHT22;36732;47.980;11.652;2022-10-12T04:31:59;16.60;71.80
50758;DHT22;36732;47.980;11.652;2022-10-12T04:34:25;16.50;71.70
50758;DHT22;36732;47.980;11.652;2022-10-12T04:36:51;16.60;71.70
50758;DHT22;36732;47.980;11.652;2022-10-12T04:39:16;16.60;71.80
50758;DHT22;36732;47.980;11.652;2022-10-12T04:41:42;16.60;71.80
50758;DHT22;36732;47.980;11.652;2022-10-12T04:44:08;16.60;71.80
50758;DHT22;36732;47.980;11.652;2022-10-12T04:46:34;16.60;71.70
50758;DHT22;36732;47.980;11.652;2022-10-12T04:49:00;16.60;71.80
50758;DHT22;36732;47.980;11.652;2022-10-12T04:51:25;16.50;71.80
50758;DHT22;36732;47.980;11.652;2022-10-12T04:53:52;16.50;71.80
50758;DHT22;36732;47.980;11.652;2022-10-12T04:56:17;16.50;71.80
50758;DHT22;36732;47.980;11.652;2022-10-12T04:58:43;16.60;71.90
50758;DHT22;36732;47.980;11.652;2022-10-12T05:01:09;16.50;71.90
50758;DHT22;36732;47.980;11.652;2022-10-12T05:03:35;16.50;71.90
50758;DHT22;36732;47.980;11.652;2022-10-12T05:06:01;16.50;71.90
50758;DHT22;36732;47.980;11.652;2022-10-12T05:08:27;16.50;71.90
50758;DHT22;36732;47.980;11.652;2022-10-12T05:10:53;16.50;72.00
50758;DHT22;36732;47.980;11.652;2022-10-12T05:13:22;16.50;72.00
50758;DHT22;36732;47.980;11.652;2022-10-12T05:15:48;16.50;72.00
50758;DHT22;36732;47.980;11.652;2022-10-12T05:18:13;16.50;72.00
50758;DHT22;36732;47.980;11.652;2022-10-12T05:20:39;16.50;72.00
50758;DHT22;36732;47.980;11.652;2022-10-12T05:23:05;16.50;72.00
50758;DHT22;36732;47.980;11.652;2022-10-12T05:25:31;16.60;72.10
50758;DHT22;36732;47.980;11.652;2022-10-12T05:27:57;16.50;72.00
50758;DHT22;36732;47.980;11.652;2022-10-12T05:30:23;16.60;72.00
50758;DHT22;36732;47.980;11.652;2022-10-12T05:32:49;16.60;72.00
50758;DHT22;36732;47.980;11.652;2022-10-12T05:35:15;16.60;72.00
50758;DHT22;36732;47.980;11.652;2022-10-12T05:37:40;16.60;72.10
50758;DHT22;36732;47.980;11.652;2022-10-12T05:40:06;16.60;72.10
50758;DHT22;36732;47.980;11.652;2022-10-12T05:42:32;16.50;72.00
50758;DHT22;36732;47.980;11.652;2022-10-12T05:45:00;16.60;72.10
50758;DHT22;36732;47.980;11.652;2022-10-12T05:47:26;16.60;72.00
50758;DHT22;36732;47.980;11.652;2022-10-12T05:49:52;16.60;72.00
50758;DHT22;36732;47.980;11.652;2022-10-12T05:52:17;16.60;72.00
50758;DHT22;36732;47.980;11.652;2022-10-12T05:54:43;16.60;72.00
50758;DHT22;36732;47.980;11.652;2022-10-12T05:57:09;16.60;72.00
50758;DHT22;36732;47.980;11.652;2022-10-12T05:59:34;16.50;72.00
50758;DHT22;36732;47.980;11.652;2022-10-12T06:02:00;16.60;72.00
50758;DHT22;36732;47.980;11.652;2022-10-12T06:04:26;16.50;72.00
50758;DHT22;36732;47.980;11.652;2022-10-12T06:06:52;16.50;72.00
50758;DHT22;36732;47.980;11.652;2022-10-12T06:09:17;16.50;72.10
50758;DHT22;36732;47.980;11.652;2022-10-12T06:11:43;16.50;72.00
50758;DHT22;36732;47.980;11.652;2022-10-12T06:14:09;16.50;72.10
50758;DHT22;36732;47.980;11.652;2022-10-12T06:16:35;16.50;72.10
50758;DHT22;36732;47.980;11.652;2022-10-12T06:19:00;16.50;72.10
50758;DHT22;36732;47.980;11.652;2022-10-12T06:21:26;16.50;72.20
50758;DHT22;36732;47.980;11.652;2022-10-12T06:23:52;16.50;72.20
50758;DHT22;36732;47.980;11.652;2022-10-12T06:26:17;16.60;72.20
50758;DHT22;36732;47.980;11.652;2022-10-12T06:28:43;16.60;72.20
50758;DHT22;36732;47.980;11.652;2022-10-12T06:31:09;16.50;72.10
50758;DHT22;36732;47.980;11.652;2022-10-12T06:33:35;16.60;72.20
50758;DHT22;36732;47.980;11.652;2022-10-12T06:36:01;16.50;72.10
50758;DHT22;36732;47.980;11.652;2022-10-12T06:38:27;16.50;72.10
50758;DHT22;36732;47.980;11.652;2022-10-12T06:40:53;16.50;72.10
50758;DHT22;36732;47.980;11.652;2022-10-12T06:43:19;16.50;72.20
50758;DHT22;36732;47.980;11.652;2022-10-12T06:45:47;16.50;72.30
50758;DHT22;36732;47.980;11.652;2022-10-12T06:48:13;16.50;72.30
50758;DHT22;36732;47.980;11.652;2022-10-12T06:50:38;16.50;72.50
50758;DHT22;36732;47.980;11.652;2022-10-12T06:53:04;16.50;73.10
50758;DHT22;36732;47.980;11.652;2022-10-12T06:55:30;16.50;72.50
50758;DHT22;36732;47.980;11.652;2022-10-12T06:57:56;16.50;72.50
50758;DHT22;36732;47.980;11.652;2022-10-12T07:00:22;16.50;72.40
50758;DHT22;36732;47.980;11.652;2022-10-12T07:02:48;16.50;72.50
50758;DHT22;36732;47.980;11.652;2022-10-12T07:05:14;16.50;72.50
50758;DHT22;36732;47.980;11.652;2022-10-12T07:07:41;16.50;72.50
50758;DHT22;36732;47.980;11.652;2022-10-12T07:10:07;16.50;72.60
50758;DHT22;36732;47.980;11.652;2022-10-12T07:12:36;16.50;72.70
50758;DHT22;36732;47.980;11.652;2022-10-12T07:15:04;16.40;72.80
50758;DHT22;36732;47.980;11.652;2022-10-12T07:17:30;16.50;72.80
50758;DHT22;36732;47.980;11.652;2022-10-12T07:19:56;16.50;72.80
50758;DHT22;36732;47.980;11.652;2022-10-12T07:22:22;16.50;72.80
50758;DHT22;36732;47.980;11.652;2022-10-12T07:24:47;16.50;72.80
50758;DHT22;36732;47.980;11.652;2022-10-12T07:27:13;16.50;72.80
50758;DHT22;36732;47.980;11.652;2022-10-12T07:29:39;16.50;72.80
50758;DHT22;36732;47.980;11.652;2022-10-12T07:32:06;16.50;72.80
50758;DHT22;36732;47.980;11.652;2022-10-12T07:34:32;16.50;72.90
50758;DHT22;36732;47.980;11.652;2022-10-12T07:36:59;16.50;72.80
50758;DHT22;36732;47.980;11.652;2022-10-12T07:39:24;16.50;72.90
50758;DHT22;36732;47.980;11.652;2022-10-12T07:41:51;16.50;72.90
50758;DHT22;36732;47.980;11.652;2022-10-12T07:44:18;16.50;72.90
50758;DHT22;36732;47.980;11.652;2022-10-12T07:46:45;16.50;72.90
50758;DHT22;36732;47.980;11.652;2022-10-12T07:49:12;16.50;72.80
50758;DHT22;36732;47.980;11.652;2022-10-12T07:51:39;16.60;72.80
50758;DHT22;36732;47.980;11.652;2022-10-12T07:54:05;16.50;72.80
50758;DHT22;36732;47.980;11.652;2022-10-12T07:56:31;16.60;72.90
50758;DHT22;36732;47.980;11.652;2022-10-12T07:58:57;16.60;72.90
50758;DHT22;36732;47.980;11.652;2022-10-12T08:01:26;16.50;72.80
50758;DHT22;36732;47.980;11.652;2022-10-12T08:03:54;16.60;72.80
50758;DHT22;36732;47.980;11.652;2022-10-12T08:06:23;16.60;72.80
50758;DHT22;36732;47.980;11.652;2022-10-12T08:08:50;16.60;72.80
50758;DHT22;36732;47.980;11.652;2022-10-12T08:11:17;16.60;72.60
50758;DHT22;36732;47.980;11.652;2022-10-12T08:13:44;16.60;72.40
50758;DHT22;36732;47.980;11.652;2022-10-12T08:16:16;16.60;72.50
50758;DHT22;36732;47.980;11.652;2022-10-12T08:18:43;16.70;72.50
50758;DHT22;36732;47.980;11.652;2022-10-12T08:21:11;16.70;72.50
50758;DHT22;36732;47.980;11.652;2022-10-12T08:23:38;16.70;72.50
50758;DHT22;36732;47.980;11.652;2022-10-12T08:26:05;16.70;72.40
50758;DHT22;36732;47.980;11.652;2022-10-12T08:28:32;16.60;72.30
50758;DHT22;36732;47.980;11.652;2022-10-12T08:30:57;16.70;72.30
50758;DHT22;36732;47.980;11.652;2022-10-12T08:33:26;16.70;72.20
50758;DHT22;36732;47.980;11.652;2022-10-12T08:35:53;16.70;72.20
50758;DHT22;36732;47.980;11.652;2022-10-12T08:38:19;16.70;72.20
50758;DHT22;36732;47.980;11.652;2022-10-12T08:46:09;16.70;72.00
50758;DHT22;36732;47.980;11.652;2022-10-12T08:48:47;16.80;71.90
50758;DHT22;36732;47.980;11.652;2022-10-12T08:51:19;16.80;71.50
50758;DHT22;36732;47.980;11.652;2022-10-12T08:56:21;16.70;71.40
50758;DHT22;36732;47.980;11.652;2022-10-12T08:58:48;16.80;71.40
50758;DHT22;36732;47.980;11.652;2022-10-12T09:01:32;16.80;71.40
50758;DHT22;36732;47.980;11.652;2022-10-12T09:07:44;16.80;71.30
50758;DHT22;36732;47.980;11.652;2022-10-12T09:10:27;16.80;71.30
50758;DHT22;36732;47.980;11.652;2022-10-12T09:16:05;16.80;71.30
50758;DHT22;36732;47.980;11.652;2022-10-12T09:18:45;16.80;71.30
50758;DHT22;36732;47.980;11.652;2022-10-12T09:21:20;16.80;71.40
50758;DHT22;36732;47.980;11.652;2022-10-12T09:23:48;16.80;71.50
50758;DHT22;36732;47.980;11.652;2022-10-12T09:29:01;16.80;71.40
50758;DHT22;36732;47.980;11.652;2022-10-12T09:34:05;16.90;71.30
50758;DHT22;36732;47.980;11.652;2022-10-12T09:36:35;16.90;71.50
50758;DHT22;36732;47.980;11.652;2022-10-12T09:39:51;16.90;71.40
50758;DHT22;36732;47.980;11.652;2022-10-12T09:41:55;16.90;72.00
50758;DHT22;36732;47.980;11.652;2022-10-12T09:49:49;16.90;71.30
50758;DHT22;36732;47.980;11.652;2022-10-12T09:52:19;16.90;71.50
50758;DHT22;36732;47.980;11.652;2022-10-12T09:54:51;16.90;71.30
50758;DHT22;36732;47.980;11.652;2022-10-12T09:57:22;16.90;71.40
50758;DHT22;36732;47.980;11.652;2022-10-12T09:59:53;16.90;71.40
50758;DHT22;36732;47.980;11.652;2022-10-12T10:02:24;16.90;71.30
50758;DHT22;36732;47.980;11.652;2022-10-12T10:04:52;16.90;71.20
50758;DHT22;36732;47.980;11.652;2022-10-12T10:07:19;16.90;71.30
50758;DHT22;36732;47.980;11.652;2022-10-12T10:10:11;16.90;71.30
50758;DHT22;36732;47.980;11.652;2022-10-12T10:12:52;16.90;71.40
50758;DHT22;36732;47.980;11.652;2022-10-12T10:15:28;16.90;71.40
50758;DHT22;36732;47.980;11.652;2022-10-12T10:18:02;17.00;71.50
50758;DHT22;36732;47.980;11.652;2022-10-12T10:23:25;17.00;71.30
50758;DHT22;36732;47.980;11.652;2022-10-12T10:26:04;17.00;71.30
50758;DHT22;36732;47.980;11.652;2022-10-12T10:28:33;17.00;71.20
50758;DHT22;36732;47.980;11.652;2022-10-12T10:31:06;17.00;71.20
50758;DHT22;36732;47.980;11.652;2022-10-12T10:33:42;17.00;71.20
50758;DHT22;36732;47.980;11.652;2022-10-12T10:36:21;17.00;71.20
50758;DHT22;36732;47.980;11.652;2022-10-12T10:38:57;17.00;71.20
50758;DHT22;36732;47.980;11.652;2022-10-12T10:41:34;17.00;71.10
50758;DHT22;36732;47.980;11.652;2022-10-12T10:44:02;17.00;71.10
50758;DHT22;36732;47.980;11.652;2022-10-12T10:46:30;17.00;71.10
50758;DHT22;36732;47.980;11.652;2022-10-12T10:48:59;17.00;71.00
50758;DHT22;36732;47.980;11.652;2022-10-12T10:51:44;17.00;71.10
50758;DHT22;36732;47.980;11.652;2022-10-12T10:54:14;17.00;70.80
50758;DHT22;36732;47.980;11.652;2022-10-12T10:56:55;17.00;70.90
50758;DHT22;36732;47.980;11.652;2022-10-12T10:59:28;17.00;70.70
50758;DHT22;36732;47.980;11.652;2022-10-12T11:02:24;17.10;70.90
50758;DHT22;36732;47.980;11.652;2022-10-12T11:05:14;17.10;70.30
50758;DHT22;36732;47.980;11.652;2022-10-12T11:07:52;17.10;70.00
50758;DHT22;36732;47.980;11.652;2022-10-12T11:10:33;17.10;69.90
50758;DHT22;36732;47.980;11.652;2022-10-12T11:13:06;17.10;70.00
50758;DHT22;36732;47.980;11.652;2022-10-12T11:15:49;17.10;70.00
50758;DHT22;36732;47.980;11.652;2022-10-12T11:21:16;17.10;69.70
50758;DHT22;36732;47.980;11.652;2022-10-12T11:24:11;17.10;69.50
50758;DHT22;36732;47.980;11.652;2022-10-12T11:27:07;17.10;69.40
50758;DHT22;36732;47.980;11.652;2022-10-12T11:29:35;17.10;69.60
50758;DHT22;36732;47.980;11.652;2022-10-12T11:32:06;17.10;69.80
50758;DHT22;36732;47.980;11.652;2022-10-12T11:34:51;17.10;69.50
50758;DHT22;36732;47.980;11.652;2022-10-12T11:37:23;17.10;69.10
50758;DHT22;36732;47.980;11.652;2022-10-12T11:40:24;17.20;69.50
50758;DHT22;36732;47.980;11.652;2022-10-12T11:42:53;17.10;69.30
50758;DHT22;36732;47.980;11.652;2022-10-12T11:45:29;17.20;69.40
50758;DHT22;36732;47.980;11.652;2022-10-12T11:48:06;17.10;68.90
50758;DHT22;36732;47.980;11.652;2022-10-12T11:50:42;17.20;68.90
50758;DHT22;36732;47.980;11.652;2022-10-12T11:56:24;17.10;68.90
50758;DHT22;36732;47.980;11.652;2022-10-12T11:59:00;17.20;69.20
50758;DHT22;36732;47.980;11.652;2022-10-12T12:04:34;17.20;68.90
50758;DHT22;36732;47.980;11.652;2022-10-12T12:07:40;17.20;69.60
50758;DHT22;36732;47.980;11.652;2022-10-12T12:18:17;17.20;69.20
50758;DHT22;36732;47.980;11.652;2022-10-12T12:28:48;17.30;69.30
50758;DHT22;36732;47.980;11.652;2022-10-12T12:36:33;17.30;68.90
50758;DHT22;36732;47.980;11.652;2022-10-12T12:39:03;17.30;68.70
50758;DHT22;36732;47.980;11.652;2022-10-12T12:41:51;17.30;68.80
50758;DHT22;36732;47.980;11.652;2022-10-12T12:52:24;17.30;68.80
50758;DHT22;36732;47.980;11.652;2022-10-12T13:09:35;17.30;68.80
50758;DHT22;36732;47.980;11.652;2022-10-12T13:12:47;17.30;68.80
50758;DHT22;36732;47.980;11.652;2022-10-12T13:18:55;17.30;68.90
50758;DHT22;36732;47.980;11.652;2022-10-12T13:21:26;17.40;68.70
50758;DHT22;36732;47.980;11.652;2022-10-12T13:24:24;17.40;69.00
50758;DHT22;36732;47.980;11.652;2022-10-12T13:27:07;17.40;68.60
50758;DHT22;36732;47.980;11.652;2022-10-12T13:29:56;17.30;68.70
50758;DHT22;36732;47.980;11.652;2022-10-12T13:36:04;17.40;68.90
50758;DHT22;36732;47.980;11.652;2022-10-12T13:38:34;17.40;68.80
50758;DHT22;36732;47.980;11.652;2022-10-12T13:41:11;17.40;68.90
50758;DHT22;36732;47.980;11.652;2022-10-12T13:43:41;17.40;68.70
50758;DHT22;36732;47.980;11.652;2022-10-12T13:49:19;17.40;69.10
50758;DHT22;36732;47.980;11.652;2022-10-12T13:51:57;17.40;68.90
50758;DHT22;36732;47.980;11.652;2022-10-12T13:54:33;17.40;68.90
50758;DHT22;36732;47.980;11.652;2022-10-12T14:02:42;17.40;69.00
50758;DHT22;36732;47.980;11.652;2022-10-12T14:05:21;17.40;69.10
50758;DHT22;36732;47.980;11.652;2022-10-12T14:07:50;17.40;69.00
50758;DHT22;36732;47.980;11.652;2022-10-12T14:12:49;17.40;69.10
50758;DHT22;36732;47.980;11.652;2022-10-12T14:15:17;17.50;69.20
50758;DHT22;36732;47.980;11.652;2022-10-12T14:17:45;17.40;69.20
50758;DHT22;36732;47.980;11.652;2022-10-12T14:20:49;17.50;69.00
50758;DHT22;36732;47.980;11.652;2022-10-12T14:23:15;17.40;68.90
50758;DHT22;36732;47.980;11.652;2022-10-12T14:25:54;17.50;68.80
50758;DHT22;36732;47.980;11.652;2022-10-12T14:30:54;17.50;68.60
50758;DHT22;36732;47.980;11.652;2022-10-12T14:33:22;17.50;68.80
50758;DHT22;36732;47.980;11.652;2022-10-12T14:35:50;17.50;68.80
50758;DHT22;36732;47.980;11.652;2022-10-12T14:38:40;17.50;68.80
50758;DHT22;36732;47.980;11.652;2022-10-12T14:44:13;17.50;68.40
50758;DHT22;36732;47.980;11.652;2022-10-12T14:46:53;17.50;68.40
50758;DHT22;36732;47.980;11.652;2022-10-12T14:49:25;17.40;68.50
50758;DHT22;36732;47.980;11.652;2022-10-12T14:51:53;17.40;68.60
50758;DHT22;36732;47.980;11.652;2022-10-12T14:54:20;17.50;69.30
50758;DHT22;36732;47.980;11.652;2022-10-12T14:56:46;17.40;68.70
50758;DHT22;36732;47.980;11.652;2022-10-12T14:59:12;17.40;68.70
50758;DHT22;36732;47.980;11.652;2022-10-12T15:01:38;17.40;68.80
50758;DHT22;36732;47.980;11.652;2022-10-12T15:04:04;17.50;68.80
50758;DHT22;36732;47.980;11.652;2022-10-12T15:06:30;17.40;68.80
50758;DHT22;36732;47.980;11.652;2022-10-12T15:08:55;17.40;68.80
50758;DHT22;36732;47.980;11.652;2022-10-12T15:11:21;17.50;68.90
50758;DHT22;36732;47.980;11.652;2022-10-12T15:13:48;17.40;68.90
50758;DHT22;36732;47.980;11.652;2022-10-12T15:16:22;17.40;68.90
50758;DHT22;36732;47.980;11.652;2022-10-12T15:18:50;17.40;68.90
50758;DHT22;36732;47.980;11.652;2022-10-12T15:21:16;17.40;68.90
50758;DHT22;36732;47.980;11.652;2022-10-12T15:23:42;17.50;69.00
50758;DHT22;36732;47.980;11.652;2022-10-12T15:26:12;17.40;69.00
50758;DHT22;36732;47.980;11.652;2022-10-12T15:28:39;17.40;68.90
50758;DHT22;36732;47.980;11.652;2022-10-12T15:31:05;17.40;68.90
50758;DHT22;36732;47.980;11.652;2022-10-12T15:33:31;17.50;68.70
50758;DHT22;36732;47.980;11.652;2022-10-12T15:35:57;17.40;68.60
50758;DHT22;36732;47.980;11.652;2022-10-12T15:38:23;17.40;68.60
50758;DHT22;36732;47.980;11.652;2022-10-12T15:40:49;17.40;68.60
50758;DHT22;36732;47.980;11.652;2022-10-12T15:43:20;17.40;68.70
50758;DHT22;36732;47.980;11.652;2022-10-12T15:45:46;17.40;68.60
50758;DHT22;36732;47.980;11.652;2022-10-12T15:48:12;17.40;68.50
50758;DHT22;36732;47.980;11.652;2022-10-12T15:50:46;17.40;68.50
50758;DHT22;36732;47.980;11.652;2022-10-12T15:53:30;17.40;68.30
50758;DHT22;36732;47.980;11.652;2022-10-12T15:55:55;17.40;68.20
50758;DHT22;36732;47.980;11.652;2022-10-12T15:58:21;17.40;68.50
50758;DHT22;36732;47.980;11.652;2022-10-12T16:00:48;17.40;68.10
50758;DHT22;36732;47.980;11.652;2022-10-12T16:03:16;17.40;68.30
50758;DHT22;36732;47.980;11.652;2022-10-12T16:05:44;17.40;68.40
50758;DHT22;36732;47.980;11.652;2022-10-12T16:08:10;17.30;68.20
50758;DHT22;36732;47.980;11.652;2022-10-12T16:10:39;17.30;68.10
50758;DHT22;36732;47.980;11.652;2022-10-12T16:13:07;17.30;68.10
50758;DHT22;36732;47.980;11.652;2022-10-12T16:15:35;17.40;68.30
50758;DHT22;36732;47.980;11.652;2022-10-12T16:18:02;17.30;68.20
50758;DHT22;36732;47.980;11.652;2022-10-12T16:20:30;17.30;68.30
50758;DHT22;36732;47.980;11.652;2022-10-12T16:22:57;17.30;68.40
50758;DHT22;36732;47.980;11.652;2022-10-12T16:25:24;17.30;68.30
50758;DHT22;36732;47.980;11.652;2022-10-12T16:27:53;17.30;68.30
50758;DHT22;36732;47.980;11.652;2022-10-12T16:30:20;17.30;68.30
50758;DHT22;36732;47.980;11.652;2022-10-12T16:32:47;17.30;68.40
50758;DHT22;36732;47.980;11.652;2022-10-12T16:35:13;17.30;68.40
50758;DHT22;36732;47.980;11.652;2022-10-12T16:37:39;17.30;68.40
50758;DHT22;36732;47.980;11.652;2022-10-12T16:40:06;17.30;68.40
50758;DHT22;36732;47.980;11.652;2022-10-12T16:42:32;17.30;68.30
50758;DHT22;36732;47.980;11.652;2022-10-12T16:44:58;17.30;68.30
50758;DHT22;36732;47.980;11.652;2022-10-12T16:47:24;17.30;68.20
50758;DHT22;36732;47.980;11.652;2022-10-12T16:49:50;17.30;68.10
50758;DHT22;36732;47.980;11.652;2022-10-12T16:52:18;17.30;68.10
50758;DHT22;36732;47.980;11.652;2022-10-12T16:54:45;17.30;68.20
50758;DHT22;36732;47.980;11.652;2022-10-12T16:57:11;17.30;68.20
50758;DHT22;36732;47.980;11.652;2022-10-12T16:59:37;17.20;68.10
50758;DHT22;36732;47.980;11.652;2022-10-12T17:02:04;17.30;68.30
50758;DHT22;36732;47.980;11.652;2022-10-12T17:04:29;17.30;68.10
50758;DHT22;36732;47.980;11.652;2022-10-12T17:06:55;17.30;68.00
50758;DHT22;36732;47.980;11.652;2022-10-12T17:09:21;17.20;67.90
50758;DHT22;36732;47.980;11.652;2022-10-12T17:11:47;17.20;67.90
50758;DHT22;36732;47.980;11.652;2022-10-12T17:14:14;17.20;67.80
50758;DHT22;36732;47.980;11.652;2022-10-12T17:16:41;17.20;67.80
50758;DHT22;36732;47.980;11.652;2022-10-12T17:19:28;17.20;67.70
50758;DHT22;36732;47.980;11.652;2022-10-12T17:21:56;17.20;67.60
50758;DHT22;36732;47.980;11.652;2022-10-12T17:24:25;17.20;67.50
50758;DHT22;36732;47.980;11.652;2022-10-12T17:26:52;17.20;67.60
50758;DHT22;36732;47.980;11.652;2022-10-12T17:29:18;17.20;67.60
50758;DHT22;36732;47.980;11.652;2022-10-12T17:31:45;17.20;67.50
50758;DHT22;36732;47.980;11.652;2022-10-12T17:34:29;17.20;67.50
50758;DHT22;36732;47.980;11.652;2022-10-12T17:36:58;17.10;67.00
50758;DHT22;36732;47.980;11.652;2022-10-12T17:39:27;17.20;67.30